sensor_id;sensor_type;location;lat;lon;timestamp;temperature;humidity
43520;DHT22;46848;51.980;5.918;2023-06-14T00:00:19;23.30;36.60
43520;DHT22;46848;51.980;5.918;2023-06-14T00:02:45;23.30;36.70
43520;DHT22;46848;51.980;5.918;2023-06-14T00:05:10;23.20;36.80
43520;DHT22;46848;51.980;5.918;2023-06-14T00:07:40;23.30;36.90
43520;DHT22;46848;51.980;5.918;2023-06-14T00:10:10;23.30;36.90
43520;DHT22;46848;51.980;5.918;2023-06-14T00:12:37;23.20;37.00
43520;DHT22;46848;51.980;5.918;2023-06-14T00:15:03;23.20;37.10
43520;DHT22;46848;51.980;5.918;2023-06-14T00:17:29;23.10;37.10
43520;DHT22;46848;51.980;5.918;2023-06-14T00:19:57;23.10;37.20
43520;DHT22;46848;51.980;5.918;2023-06-14T00:22:23;23.10;37.30
43520;DHT22;46848;51.980;5.918;2023-06-14T00:24:54;23.10;37.40
43520;DHT22;46848;51.980;5.918;2023-06-14T00:27:19;23.00;37.40
43520;DHT22;46848;51.980;5.918;2023-06-14T00:29:45;23.10;38.20
43520;DHT22;46848;51.980;5.918;2023-06-14T00:32:11;23.00;37.70
43520;DHT22;46848;51.980;5.918;2023-06-14T00:34:36;22.90;37.80
43520;DHT22;46848;51.980;5.918;2023-06-14T00:37:02;22.90;37.90
43520;DHT22;46848;51.980;5.918;2023-06-14T00:39:28;22.80;37.80
43520;DHT22;46848;51.980;5.918;2023-06-14T00:41:53;22.80;37.90
43520;DHT22;46848;51.980;5.918;2023-06-14T00:44:19;22.80;38.00
43520;DHT22;46848;51.980;5.918;2023-06-14T00:46:46;22.70;38.10
43520;DHT22;46848;51.980;5.918;2023-06-14T00:49:13;22.70;38.30
43520;DHT22;46848;51.980;5.918;2023-06-14T00:51:43;22.70;38.40
43520;DHT22;46848;51.980;5.918;2023-06-14T00:54:10;22.60;38.40
43520;DHT22;46848;51.980;5.918;2023-06-14T00:56:36;22.60;38.40
43520;DHT22;46848;51.980;5.918;2023-06-14T00:59:02;22.70;38.50
43520;DHT22;46848;51.980;5.918;2023-06-14T01:01:29;22.60;38.50
43520;DHT22;46848;51.980;5.918;2023-06-14T01:03:58;22.60;38.60
43520;DHT22;46848;51.980;5.918;2023-06-14T01:06:33;22.60;38.70
43520;DHT22;46848;51.980;5.918;2023-06-14T01:09:27;22.50;38.70
43520;DHT22;46848;51.980;5.918;2023-06-14T01:12:10;22.50;38.80
43520;DHT22;46848;51.980;5.918;2023-06-14T01:14:38;22.50;38.80
43520;DHT22;46848;51.980;5.918;2023-06-14T01:17:05;22.50;38.80
43520;DHT22;46848;51.980;5.918;2023-06-14T01:19:33;22.50;38.90
43520;DHT22;46848;51.980;5.918;2023-06-14T01:22:01;22.40;39.00
43520;DHT22;46848;51.980;5.918;2023-06-14T01:24:26;22.40;39.00
43520;DHT22;46848;51.980;5.918;2023-06-14T01:26:59;22.40;39.00
43520;DHT22;46848;51.980;5.918;2023-06-14T01:29:25;22.40;39.10
43520;DHT22;46848;51.980;5.918;2023-06-14T01:31:53;22.40;39.10
43520;DHT22;46848;51.980;5.918;2023-06-14T01:34:20;22.40;39.10
43520;DHT22;46848;51.980;5.918;2023-06-14T01:36:46;22.40;39.20
43520;DHT22;46848;51.980;5.918;2023-06-14T01:39:14;22.30;39.20
43520;DHT22;46848;51.980;5.918;2023-06-14T01:41:41;22.30;39.30
43520;DHT22;46848;51.980;5.918;2023-06-14T01:44:08;22.30;39.40
43520;DHT22;46848;51.980;5.918;2023-06-14T01:46:35;22.30;40.00
43520;DHT22;46848;51.980;5.918;2023-06-14T01:49:00;22.30;39.40
43520;DHT22;46848;51.980;5.918;2023-06-14T01:51:26;22.20;39.30
43520;DHT22;46848;51.980;5.918;2023-06-14T01:53:52;22.30;39.40
43520;DHT22;46848;51.980;5.918;2023-06-14T01:56:18;22.20;39.50
43520;DHT22;46848;51.980;5.918;2023-06-14T01:59:09;22.20;39.50
43520;DHT22;46848;51.980;5.918;2023-06-14T02:01:35;22.20;39.60
43520;DHT22;46848;51.980;5.918;2023-06-14T02:04:02;22.20;39.70
43520;DHT22;46848;51.980;5.918;2023-06-14T02:06:27;22.00;39.60
43520;DHT22;46848;51.980;5.918;2023-06-14T02:08:53;22.00;39.70
43520;DHT22;46848;51.980;5.918;2023-06-14T02:11:19;22.10;39.70
43520;DHT22;46848;51.980;5.918;2023-06-14T02:13:45;22.10;39.80
43520;DHT22;46848;51.980;5.918;2023-06-14T02:16:12;22.10;39.90
43520;DHT22;46848;51.980;5.918;2023-06-14T02:18:38;22.10;40.00
43520;DHT22;46848;51.980;5.918;2023-06-14T02:21:03;22.00;40.60
43520;DHT22;46848;51.980;5.918;2023-06-14T02:23:30;22.00;40.00
43520;DHT22;46848;51.980;5.918;2023-06-14T02:25:57;21.90;40.00
43520;DHT22;46848;51.980;5.918;2023-06-14T02:28:23;21.90;40.30
43520;DHT22;46848;51.980;5.918;2023-06-14T02:30:48;21.90;40.30
43520;DHT22;46848;51.980;5.918;2023-06-14T02:33:14;21.90;40.30
43520;DHT22;46848;51.980;5.918;2023-06-14T02:35:39;21.80;40.30
43520;DHT22;46848;51.980;5.918;2023-06-14T02:38:05;21.80;40.40
43520;DHT22;46848;51.980;5.918;2023-06-14T02:40:31;21.80;40.40
43520;DHT22;46848;51.980;5.918;2023-06-14T02:42:56;21.80;40.40
43520;DHT22;46848;51.980;5.918;2023-06-14T02:45:22;21.80;40.40
43520;DHT22;46848;51.980;5.918;2023-06-14T02:47:48;21.80;40.50
43520;DHT22;46848;51.980;5.918;2023-06-14T02:50:13;21.80;40.60
43520;DHT22;46848;51.980;5.918;2023-06-14T02:52:39;21.70;40.60
43520;DHT22;46848;51.980;5.918;2023-06-14T02:55:07;21.70;40.60
43520;DHT22;46848;51.980;5.918;2023-06-14T02:57:33;21.70;40.70
43520;DHT22;46848;51.980;5.918;2023-06-14T02:59:59;21.70;40.80
43520;DHT22;46848;51.980;5.918;2023-06-14T03:02:25;21.60;41.00
43520;DHT22;46848;51.980;5.918;2023-06-14T03:04:50;21.60;41.10
43520;DHT22;46848;51.980;5.918;2023-06-14T03:07:16;21.50;41.10
43520;DHT22;46848;51.980;5.918;2023-06-14T03:09:45;21.50;41.20
43520;DHT22;46848;51.980;5.918;2023-06-14T03:12:12;21.50;41.10
43520;DHT22;46848;51.980;5.918;2023-06-14T03:14:37;21.50;41.20
43520;DHT22;46848;51.980;5.918;2023-06-14T03:17:04;21.50;41.30
43520;DHT22;46848;51.980;5.918;2023-06-14T03:19:30;21.50;41.20
43520;DHT22;46848;51.980;5.918;2023-06-14T03:21:56;21.50;41.30
43520;DHT22;46848;51.980;5.918;2023-06-14T03:24:24;21.50;41.30
43520;DHT22;46848;51.980;5.918;2023-06-14T03:26:53;21.50;41.30
43520;DHT22;46848;51.980;5.918;2023-06-14T03:29:18;21.40;41.40
43520;DHT22;46848;51.980;5.918;2023-06-14T03:32:01;21.40;41.50
43520;DHT22;46848;51.980;5.918;2023-06-14T03:34:26;21.40;41.60
43520;DHT22;46848;51.980;5.918;2023-06-14T03:36:53;21.30;41.60
43520;DHT22;46848;51.980;5.918;2023-06-14T03:39:19;21.30;41.70
43520;DHT22;46848;51.980;5.918;2023-06-14T03:41:45;21.30;41.90
43520;DHT22;46848;51.980;5.918;2023-06-14T03:44:11;21.30;41.90
43520;DHT22;46848;51.980;5.918;2023-06-14T03:46:36;21.30;42.00
43520;DHT22;46848;51.980;5.918;2023-06-14T03:49:02;21.20;42.00
43520;DHT22;46848;51.980;5.918;2023-06-14T03:51:28;21.20;42.20
43520;DHT22;46848;51.980;5.918;2023-06-14T03:53:54;21.20;42.20
43520;DHT22;46848;51.980;5.918;2023-06-14T03:56:21;21.20;42.20
43520;DHT22;46848;51.980;5.918;2023-06-14T03:58:47;21.10;42.30
43520;DHT22;46848;51.980;5.918;2023-06-14T04:01:13;21.10;42.50
43520;DHT22;46848;51.980;5.918;2023-06-14T04:03:39;21.10;42.60
43520;DHT22;46848;51.980;5.918;2023-06-14T04:06:05;21.00;42.60
43520;DHT22;46848;51.980;5.918;2023-06-14T04:08:32;21.00;42.60
43520;DHT22;46848;51.980;5.918;2023-06-14T04:10:57;21.00;42.70
43520;DHT22;46848;51.980;5.918;2023-06-14T04:13:23;21.00;42.70
43520;DHT22;46848;51.980;5.918;2023-06-14T04:15:49;21.00;42.80
43520;DHT22;46848;51.980;5.918;2023-06-14T04:18:14;21.00;42.90
43520;DHT22;46848;51.980;5.918;2023-06-14T04:20:40;21.00;42.90
43520;DHT22;46848;51.980;5.918;2023-06-14T04:23:16;21.10;42.90
43520;DHT22;46848;51.980;5.918;2023-06-14T04:25:43;21.10;43.20
43520;DHT22;46848;51.980;5.918;2023-06-14T04:28:11;21.00;43.20
43520;DHT22;46848;51.980;5.918;2023-06-14T04:30:37;21.00;43.40
43520;DHT22;46848;51.980;5.918;2023-06-14T04:33:04;20.90;43.50
43520;DHT22;46848;51.980;5.918;2023-06-14T04:35:31;20.90;43.60
43520;DHT22;46848;51.980;5.918;2023-06-14T04:37:58;20.90;43.70
43520;DHT22;46848;51.980;5.918;2023-06-14T04:40:24;20.90;43.70
43520;DHT22;46848;51.980;5.918;2023-06-14T04:42:50;20.90;43.70
43520;DHT22;46848;51.980;5.918;2023-06-14T04:45:16;20.90;44.00
43520;DHT22;46848;51.980;5.918;2023-06-14T04:47:42;20.90;44.00
43520;DHT22;46848;51.980;5.918;2023-06-14T04:50:10;20.90;44.00
43520;DHT22;46848;51.980;5.918;2023-06-14T04:52:38;20.90;44.10
43520;DHT22;46848;51.980;5.918;2023-06-14T04:55:04;20.90;44.10
43520;DHT22;46848;51.980;5.918;2023-06-14T04:57:31;20.90;43.90
43520;DHT22;46848;51.980;5.918;2023-06-14T04:59:57;21.00;44.00
43520;DHT22;46848;51.980;5.918;2023-06-14T05:02:23;21.00;43.90
43520;DHT22;46848;51.980;5.918;2023-06-14T05:04:50;21.00;44.00
43520;DHT22;46848;51.980;5.918;2023-06-14T05:07:16;21.00;44.20
43520;DHT22;46848;51.980;5.918;2023-06-14T05:09:42;21.00;44.20
43520;DHT22;46848;51.980;5.918;2023-06-14T05:12:07;21.00;44.30
43520;DHT22;46848;51.980;5.918;2023-06-14T05:14:34;21.10;44.30
43520;DHT22;46848;51.980;5.918;2023-06-14T05:17:00;21.10;44.30
43520;DHT22;46848;51.980;5.918;2023-06-14T05:19:26;21.10;44.30
43520;DHT22;46848;51.980;5.918;2023-06-14T05:21:52;21.10;44.30
43520;DHT22;46848;51.980;5.918;2023-06-14T05:24:18;21.10;44.60
43520;DHT22;46848;51.980;5.918;2023-06-14T05:26:44;21.00;44.80
43520;DHT22;46848;51.980;5.918;2023-06-14T05:29:10;21.00;44.80
43520;DHT22;46848;51.980;5.918;2023-06-14T05:31:36;21.00;44.70
43520;DHT22;46848;51.980;5.918;2023-06-14T05:34:01;21.00;44.80
43520;DHT22;46848;51.980;5.918;2023-06-14T05:36:27;21.00;44.90
43520;DHT22;46848;51.980;5.918;2023-06-14T05:38:53;21.10;44.80
43520;DHT22;46848;51.980;5.918;2023-06-14T05:41:28;21.10;44.80
43520;DHT22;46848;51.980;5.918;2023-06-14T05:43:57;21.10;45.00
43520;DHT22;46848;51.980;5.918;2023-06-14T05:46:23;21.10;45.00
43520;DHT22;46848;51.980;5.918;2023-06-14T05:48:52;21.10;45.20
43520;DHT22;46848;51.980;5.918;2023-06-14T05:51:18;21.10;45.10
43520;DHT22;46848;51.980;5.918;2023-06-14T05:53:48;21.30;45.10
43520;DHT22;46848;51.980;5.918;2023-06-14T05:56:14;21.30;44.90
43520;DHT22;46848;51.980;5.918;2023-06-14T05:58:40;21.50;44.90
43520;DHT22;46848;51.980;5.918;2023-06-14T06:01:06;21.50;44.80
43520;DHT22;46848;51.980;5.918;2023-06-14T06:03:32;21.50;44.70
43520;DHT22;46848;51.980;5.918;2023-06-14T06:05:58;21.70;44.70
43520;DHT22;46848;51.980;5.918;2023-06-14T06:08:24;21.80;44.60
43520;DHT22;46848;51.980;5.918;2023-06-14T06:10:50;21.90;44.50
43520;DHT22;46848;51.980;5.918;2023-06-14T06:13:15;22.00;44.30
43520;DHT22;46848;51.980;5.918;2023-06-14T06:15:41;22.10;44.20
43520;DHT22;46848;51.980;5.918;2023-06-14T06:18:07;22.20;44.10
43520;DHT22;46848;51.980;5.918;2023-06-14T06:20:32;22.30;43.90
43520;DHT22;46848;51.980;5.918;2023-06-14T06:22:58;22.40;43.90
43520;DHT22;46848;51.980;5.918;2023-06-14T06:25:25;22.40;43.80
43520;DHT22;46848;51.980;5.918;2023-06-14T06:27:52;22.60;43.80
43520;DHT22;46848;51.980;5.918;2023-06-14T06:30:18;22.70;43.70
43520;DHT22;46848;51.980;5.918;2023-06-14T06:32:44;22.90;43.50
43520;DHT22;46848;51.980;5.918;2023-06-14T06:35:10;23.10;43.20
43520;DHT22;46848;51.980;5.918;2023-06-14T06:37:36;23.30;42.80
43520;DHT22;46848;51.980;5.918;2023-06-14T06:40:03;23.50;42.40
43520;DHT22;46848;51.980;5.918;2023-06-14T06:42:35;23.50;42.30
43520;DHT22;46848;51.980;5.918;2023-06-14T06:45:00;23.70;42.70
43520;DHT22;46848;51.980;5.918;2023-06-14T06:47:26;23.80;41.70
43520;DHT22;46848;51.980;5.918;2023-06-14T06:49:52;23.90;41.60
43520;DHT22;46848;51.980;5.918;2023-06-14T06:52:18;24.00;41.40
43520;DHT22;46848;51.980;5.918;2023-06-14T06:54:43;24.20;41.20
43520;DHT22;46848;51.980;5.918;2023-06-14T06:57:09;24.30;40.80
43520;DHT22;46848;51.980;5.918;2023-06-14T06:59:36;24.30;40.70
43520;DHT22;46848;51.980;5.918;2023-06-14T07:02:02;24.30;40.40
43520;DHT22;46848;51.980;5.918;2023-06-14T07:04:28;24.20;40.90
43520;DHT22;46848;51.980;5.918;2023-06-14T07:06:53;24.20;40.60
43520;DHT22;46848;51.980;5.918;2023-06-14T07:09:19;24.20;40.70
43520;DHT22;46848;51.980;5.918;2023-06-14T07:11:47;24.30;40.80
43520;DHT22;46848;51.980;5.918;2023-06-14T07:14:13;24.30;40.60
43520;DHT22;46848;51.980;5.918;2023-06-14T07:16:39;24.40;40.60
43520;DHT22;46848;51.980;5.918;2023-06-14T07:19:05;24.50;40.60
43520;DHT22;46848;51.980;5.918;2023-06-14T07:21:30;24.70;40.20
43520;DHT22;46848;51.980;5.918;2023-06-14T07:23:56;24.60;40.00
43520;DHT22;46848;51.980;5.918;2023-06-14T07:26:22;24.70;40.20
43520;DHT22;46848;51.980;5.918;2023-06-14T07:28:48;24.80;40.70
43520;DHT22;46848;51.980;5.918;2023-06-14T07:31:15;25.00;39.90
43520;DHT22;46848;51.980;5.918;2023-06-14T07:33:41;25.20;39.70
43520;DHT22;46848;51.980;5.918;2023-06-14T07:36:07;25.40;39.40
43520;DHT22;46848;51.980;5.918;2023-06-14T07:38:33;25.50;38.90
43520;DHT22;46848;51.980;5.918;2023-06-14T07:40:59;25.50;38.90
43520;DHT22;46848;51.980;5.918;2023-06-14T07:43:24;25.70;39.00
43520;DHT22;46848;51.980;5.918;2023-06-14T07:45:50;25.80;38.20
43520;DHT22;46848;51.980;5.918;2023-06-14T07:48:16;25.80;37.90
43520;DHT22;46848;51.980;5.918;2023-06-14T07:50:42;25.80;37.70
43520;DHT22;46848;51.980;5.918;2023-06-14T07:53:07;26.10;37.80
43520;DHT22;46848;51.980;5.918;2023-06-14T07:55:33;26.40;37.80
43520;DHT22;46848;51.980;5.918;2023-06-14T07:58:02;26.60;37.30
43520;DHT22;46848;51.980;5.918;2023-06-14T08:00:28;26.60;36.40
43520;DHT22;46848;51.980;5.918;2023-06-14T08:02:53;26.70;35.80
43520;DHT22;46848;51.980;5.918;2023-06-14T08:05:24;26.70;35.80
43520;DHT22;46848;51.980;5.918;2023-06-14T08:07:50;26.60;35.00
43520;DHT22;46848;51.980;5.918;2023-06-14T08:10:15;26.40;35.30
43520;DHT22;46848;51.980;5.918;2023-06-14T08:12:41;26.40;35.80
43520;DHT22;46848;51.980;5.918;2023-06-14T08:15:07;26.50;35.70
43520;DHT22;46848;51.980;5.918;2023-06-14T08:17:33;26.60;35.80
43520;DHT22;46848;51.980;5.918;2023-06-14T08:19:58;26.60;35.30
43520;DHT22;46848;51.980;5.918;2023-06-14T08:22:24;26.70;35.60
43520;DHT22;46848;51.980;5.918;2023-06-14T08:24:51;26.90;35.70
43520;DHT22;46848;51.980;5.918;2023-06-14T08:27:18;27.10;35.50
43520;DHT22;46848;51.980;5.918;2023-06-14T08:29:44;27.20;35.30
43520;DHT22;46848;51.980;5.918;2023-06-14T08:32:10;27.30;34.60
43520;DHT22;46848;51.980;5.918;2023-06-14T08:34:35;27.30;34.20
43520;DHT22;46848;51.980;5.918;2023-06-14T08:37:01;27.20;34.40
43520;DHT22;46848;51.980;5.918;2023-06-14T08:39:27;27.20;34.00
43520;DHT22;46848;51.980;5.918;2023-06-14T08:41:53;27.10;34.80
43520;DHT22;46848;51.980;5.918;2023-06-14T08:44:20;27.30;35.00
43520;DHT22;46848;51.980;5.918;2023-06-14T08:46:47;27.40;35.00
43520;DHT22;46848;51.980;5.918;2023-06-14T08:49:16;27.60;35.70
43520;DHT22;46848;51.980;5.918;2023-06-14T08:51:43;27.70;34.80
43520;DHT22;46848;51.980;5.918;2023-06-14T08:54:10;27.90;34.70
43520;DHT22;46848;51.980;5.918;2023-06-14T08:56:38;27.90;33.30
43520;DHT22;46848;51.980;5.918;2023-06-14T08:59:04;27.90;33.20
43520;DHT22;46848;51.980;5.918;2023-06-14T09:01:33;28.00;33.70
43520;DHT22;46848;51.980;5.918;2023-06-14T09:04:00;28.00;33.50
43520;DHT22;46848;51.980;5.918;2023-06-14T09:06:25;28.00;34.00
43520;DHT22;46848;51.980;5.918;2023-06-14T09:08:54;28.00;33.80
43520;DHT22;46848;51.980;5.918;2023-06-14T09:11:22;28.20;33.60
43520;DHT22;46848;51.980;5.918;2023-06-14T09:13:49;28.40;33.50
43520;DHT22;46848;51.980;5.918;2023-06-14T09:16:15;28.50;33.80
43520;DHT22;46848;51.980;5.918;2023-06-14T09:18:45;28.70;33.40
43520;DHT22;46848;51.980;5.918;2023-06-14T09:21:14;28.80;32.00
43520;DHT22;46848;51.980;5.918;2023-06-14T09:23:44;28.70;31.50
43520;DHT22;46848;51.980;5.918;2023-06-14T09:26:15;28.50;31.80
43520;DHT22;46848;51.980;5.918;2023-06-14T09:28:44;28.40;32.70
43520;DHT22;46848;51.980;5.918;2023-06-14T09:31:12;28.50;33.30
43520;DHT22;46848;51.980;5.918;2023-06-14T09:33:38;28.70;33.40
43520;DHT22;46848;51.980;5.918;2023-06-14T09:36:04;28.90;33.60
43520;DHT22;46848;51.980;5.918;2023-06-14T09:38:34;29.00;33.20
43520;DHT22;46848;51.980;5.918;2023-06-14T09:41:03;29.20;33.50
43520;DHT22;46848;51.980;5.918;2023-06-14T09:43:29;29.30;34.40
43520;DHT22;46848;51.980;5.918;2023-06-14T09:45:55;29.30;33.10
43520;DHT22;46848;51.980;5.918;2023-06-14T09:48:21;29.30;33.30
43520;DHT22;46848;51.980;5.918;2023-06-14T09:50:47;29.40;33.30
43520;DHT22;46848;51.980;5.918;2023-06-14T09:53:15;29.50;33.20
43520;DHT22;46848;51.980;5.918;2023-06-14T09:55:45;29.60;33.20
43520;DHT22;46848;51.980;5.918;2023-06-14T09:58:12;29.70;32.90
43520;DHT22;46848;51.980;5.918;2023-06-14T10:00:39;29.70;30.70
43520;DHT22;46848;51.980;5.918;2023-06-14T10:03:13;29.70;31.60
43520;DHT22;46848;51.980;5.918;2023-06-14T10:05:41;29.80;30.90
43520;DHT22;46848;51.980;5.918;2023-06-14T10:08:10;29.70;30.50
43520;DHT22;46848;51.980;5.918;2023-06-14T10:10:39;29.50;31.60
43520;DHT22;46848;51.980;5.918;2023-06-14T10:13:04;29.30;31.20
43520;DHT22;46848;51.980;5.918;2023-06-14T10:15:41;29.20;32.40
43520;DHT22;46848;51.980;5.918;2023-06-14T10:18:18;29.40;32.10
43520;DHT22;46848;51.980;5.918;2023-06-14T10:23:50;29.50;31.60
43520;DHT22;46848;51.980;5.918;2023-06-14T10:26:20;29.40;32.00
43520;DHT22;46848;51.980;5.918;2023-06-14T10:28:57;29.40;31.30
43520;DHT22;46848;51.980;5.918;2023-06-14T10:31:42;29.40;31.60
43520;DHT22;46848;51.980;5.918;2023-06-14T10:34:09;29.40;31.50
43520;DHT22;46848;51.980;5.918;2023-06-14T10:36:34;29.60;31.90
43520;DHT22;46848;51.980;5.918;2023-06-14T10:39:17;29.50;31.60
43520;DHT22;46848;51.980;5.918;2023-06-14T10:41:52;29.50;32.10
43520;DHT22;46848;51.980;5.918;2023-06-14T10:47:09;29.50;31.70
43520;DHT22;46848;51.980;5.918;2023-06-14T10:49:41;29.50;31.90
43520;DHT22;46848;51.980;5.918;2023-06-14T10:52:14;29.70;31.30
43520;DHT22;46848;51.980;5.918;2023-06-14T10:55:15;29.70;31.50
43520;DHT22;46848;51.980;5.918;2023-06-14T10:57:45;29.70;30.60
43520;DHT22;46848;51.980;5.918;2023-06-14T11:00:13;29.70;32.00
43520;DHT22;46848;51.980;5.918;2023-06-14T11:05:25;29.40;30.90
43520;DHT22;46848;51.980;5.918;2023-06-14T11:08:10;29.10;30.90
43520;DHT22;46848;51.980;5.918;2023-06-14T11:10:43;29.00;31.70
43520;DHT22;46848;51.980;5.918;2023-06-14T11:13:11;29.10;31.70
43520;DHT22;46848;51.980;5.918;2023-06-14T11:15:37;29.20;31.70
43520;DHT22;46848;51.980;5.918;2023-06-14T11:18:07;29.50;31.80
43520;DHT22;46848;51.980;5.918;2023-06-14T11:20:35;29.80;31.70
43520;DHT22;46848;51.980;5.918;2023-06-14T11:23:01;29.90;30.80
43520;DHT22;46848;51.980;5.918;2023-06-14T11:25:27;29.90;30.40
43520;DHT22;46848;51.980;5.918;2023-06-14T11:27:56;29.80;30.30
43520;DHT22;46848;51.980;5.918;2023-06-14T11:30:22;29.70;31.00
43520;DHT22;46848;51.980;5.918;2023-06-14T11:32:53;29.70;30.70
43520;DHT22;46848;51.980;5.918;2023-06-14T11:35:21;29.50;30.70
43520;DHT22;46848;51.980;5.918;2023-06-14T11:37:48;29.40;30.60
43520;DHT22;46848;51.980;5.918;2023-06-14T11:40:15;29.40;30.90
43520;DHT22;46848;51.980;5.918;2023-06-14T11:42:41;29.30;31.70
43520;DHT22;46848;51.980;5.918;2023-06-14T11:45:08;29.30;31.50
43520;DHT22;46848;51.980;5.918;2023-06-14T11:47:35;29.40;31.30
43520;DHT22;46848;51.980;5.918;2023-06-14T11:50:01;29.30;31.80
43520;DHT22;46848;51.980;5.918;2023-06-14T11:52:27;29.30;31.90
43520;DHT22;46848;51.980;5.918;2023-06-14T11:54:53;29.10;31.00
43520;DHT22;46848;51.980;5.918;2023-06-14T11:57:19;28.90;31.20
43520;DHT22;46848;51.980;5.918;2023-06-14T11:59:46;28.80;31.60
43520;DHT22;46848;51.980;5.918;2023-06-14T12:02:19;28.80;31.60
43520;DHT22;46848;51.980;5.918;2023-06-14T12:04:47;28.90;31.60
43520;DHT22;46848;51.980;5.918;2023-06-14T12:07:15;28.80;31.80
43520;DHT22;46848;51.980;5.918;2023-06-14T12:10:03;28.80;31.90
43520;DHT22;46848;51.980;5.918;2023-06-14T12:12:35;28.90;32.20
43520;DHT22;46848;51.980;5.918;2023-06-14T12:15:03;29.00;32.00
43520;DHT22;46848;51.980;5.918;2023-06-14T12:17:32;29.10;31.80
43520;DHT22;46848;51.980;5.918;2023-06-14T12:19:58;29.00;30.90
43520;DHT22;46848;51.980;5.918;2023-06-14T12:22:24;28.80;32.00
43520;DHT22;46848;51.980;5.918;2023-06-14T12:24:49;28.80;32.50
43520;DHT22;46848;51.980;5.918;2023-06-14T12:27:15;28.90;33.10
43520;DHT22;46848;51.980;5.918;2023-06-14T12:29:44;28.90;32.30
43520;DHT22;46848;51.980;5.918;2023-06-14T12:32:10;29.10;32.40
43520;DHT22;46848;51.980;5.918;2023-06-14T12:34:36;29.10;31.80
43520;DHT22;46848;51.980;5.918;2023-06-14T12:37:02;28.90;32.10
43520;DHT22;46848;51.980;5.918;2023-06-14T12:39:30;29.00;32.40
43520;DHT22;46848;51.980;5.918;2023-06-14T12:41:57;29.10;32.50
43520;DHT22;46848;51.980;5.918;2023-06-14T12:44:23;29.20;32.40
43520;DHT22;46848;51.980;5.918;2023-06-14T12:46:48;29.30;32.00
43520;DHT22;46848;51.980;5.918;2023-06-14T12:49:16;29.30;32.30
43520;DHT22;46848;51.980;5.918;2023-06-14T12:51:42;29.30;32.40
43520;DHT22;46848;51.980;5.918;2023-06-14T12:54:08;29.30;32.50
43520;DHT22;46848;51.980;5.918;2023-06-14T12:56:34;29.40;32.40
43520;DHT22;46848;51.980;5.918;2023-06-14T12:59:00;29.50;32.10
43520;DHT22;46848;51.980;5.918;2023-06-14T13:01:26;29.50;32.30
43520;DHT22;46848;51.980;5.918;2023-06-14T13:03:51;29.60;32.50
43520;DHT22;46848;51.980;5.918;2023-06-14T13:06:22;29.70;32.60
43520;DHT22;46848;51.980;5.918;2023-06-14T13:08:48;29.80;32.50
43520;DHT22;46848;51.980;5.918;2023-06-14T13:11:14;29.80;32.40
43520;DHT22;46848;51.980;5.918;2023-06-14T13:13:40;29.90;32.30
43520;DHT22;46848;51.980;5.918;2023-06-14T13:16:05;29.90;32.10
43520;DHT22;46848;51.980;5.918;2023-06-14T13:18:31;30.10;31.80
43520;DHT22;46848;51.980;5.918;2023-06-14T13:20:57;29.90;31.30
43520;DHT22;46848;51.980;5.918;2023-06-14T13:23:22;29.70;32.50
43520;DHT22;46848;51.980;5.918;2023-06-14T13:25:48;29.60;32.40
43520;DHT22;46848;51.980;5.918;2023-06-14T13:28:16;29.60;32.20
43520;DHT22;46848;51.980;5.918;2023-06-14T13:30:41;29.50;31.70
43520;DHT22;46848;51.980;5.918;2023-06-14T13:33:07;29.60;31.80
43520;DHT22;46848;51.980;5.918;2023-06-14T13:35:33;29.60;31.60
43520;DHT22;46848;51.980;5.918;2023-06-14T13:37:59;29.50;30.30
43520;DHT22;46848;51.980;5.918;2023-06-14T13:40:24;29.40;31.20
43520;DHT22;46848;51.980;5.918;2023-06-14T13:42:50;29.40;31.50
43520;DHT22;46848;51.980;5.918;2023-06-14T13:45:16;29.50;31.70
43520;DHT22;46848;51.980;5.918;2023-06-14T13:47:41;29.50;31.70
43520;DHT22;46848;51.980;5.918;2023-06-14T13:50:07;29.50;31.40
43520;DHT22;46848;51.980;5.918;2023-06-14T13:52:33;29.40;31.60
43520;DHT22;46848;51.980;5.918;2023-06-14T13:55:00;29.30;31.00
43520;DHT22;46848;51.980;5.918;2023-06-14T13:57:26;29.20;31.50
43520;DHT22;46848;51.980;5.918;2023-06-14T13:59:51;29.20;31.50
43520;DHT22;46848;51.980;5.918;2023-06-14T14:02:19;29.10;31.70
43520;DHT22;46848;51.980;5.918;2023-06-14T14:04:45;29.20;31.70
43520;DHT22;46848;51.980;5.918;2023-06-14T14:07:16;29.10;31.70
43520;DHT22;46848;51.980;5.918;2023-06-14T14:09:42;29.20;32.00
43520;DHT22;46848;51.980;5.918;2023-06-14T14:12:08;29.20;31.30
43520;DHT22;46848;51.980;5.918;2023-06-14T14:14:34;29.20;32.00
43520;DHT22;46848;51.980;5.918;2023-06-14T14:16:59;29.20;32.20
43520;DHT22;46848;51.980;5.918;2023-06-14T14:19:25;29.20;32.20
43520;DHT22;46848;51.980;5.918;2023-06-14T14:21:51;29.30;32.30
43520;DHT22;46848;51.980;5.918;2023-06-14T14:24:18;29.30;32.40
43520;DHT22;46848;51.980;5.918;2023-06-14T14:26:44;29.20;32.00
43520;DHT22;46848;51.980;5.918;2023-06-14T14:29:12;29.10;31.60
43520;DHT22;46848;51.980;5.918;2023-06-14T14:31:38;28.90;31.20
43520;DHT22;46848;51.980;5.918;2023-06-14T14:34:04;28.70;30.90
43520;DHT22;46848;51.980;5.918;2023-06-14T14:36:29;28.50;30.90
43520;DHT22;46848;51.980;5.918;2023-06-14T14:38:55;28.40;32.10
43520;DHT22;46848;51.980;5.918;2023-06-14T14:41:21;28.40;31.60
43520;DHT22;46848;51.980;5.918;2023-06-14T14:43:46;28.30;31.30
43520;DHT22;46848;51.980;5.918;2023-06-14T14:46:12;28.10;31.60
43520;DHT22;46848;51.980;5.918;2023-06-14T14:48:37;28.10;33.00
43520;DHT22;46848;51.980;5.918;2023-06-14T14:51:03;28.10;32.80
43520;DHT22;46848;51.980;5.918;2023-06-14T14:53:29;28.00;32.30
43520;DHT22;46848;51.980;5.918;2023-06-14T14:55:54;28.00;32.50
43520;DHT22;46848;51.980;5.918;2023-06-14T14:58:20;27.90;32.30
43520;DHT22;46848;51.980;5.918;2023-06-14T15:00:46;27.90;32.20
43520;DHT22;46848;51.980;5.918;2023-06-14T15:03:12;27.70;32.40
43520;DHT22;46848;51.980;5.918;2023-06-14T15:05:38;27.70;32.70
43520;DHT22;46848;51.980;5.918;2023-06-14T15:08:04;27.70;32.90
43520;DHT22;46848;51.980;5.918;2023-06-14T15:10:35;27.80;32.80
43520;DHT22;46848;51.980;5.918;2023-06-14T15:13:01;27.90;32.70
43520;DHT22;46848;51.980;5.918;2023-06-14T15:15:27;28.00;32.90
43520;DHT22;46848;51.980;5.918;2023-06-14T15:17:52;27.90;32.20
43520;DHT22;46848;51.980;5.918;2023-06-14T15:20:18;27.70;32.80
43520;DHT22;46848;51.980;5.918;2023-06-14T15:22:43;27.70;33.10
43520;DHT22;46848;51.980;5.918;2023-06-14T15:25:09;27.80;33.20
43520;DHT22;46848;51.980;5.918;2023-06-14T15:27:34;27.80;33.20
43520;DHT22;46848;51.980;5.918;2023-06-14T15:30:01;27.80;33.30
43520;DHT22;46848;51.980;5.918;2023-06-14T15:32:27;27.80;33.80
43520;DHT22;46848;51.980;5.918;2023-06-14T15:34:52;27.80;33.00
43520;DHT22;46848;51.980;5.918;2023-06-14T15:37:18;27.80;33.10